Time;durP1;ratioP1;P1;durP2;ratioP2;P2;SDS_P1;SDS_P2;PMS_P1;PMS_P2;Temp;Humidity;BMP_temperature;BMP_pressure;BME280_temperature;BME280_humidity;BME280_pressure;Samples;Min_cycle;Max_cycle;Signal;HPM_P1;HPM_P2
2022/07/27 00:00:19;;;;;;;2.50;2.30;;;24.90;35.00;;;;;;5111034;28;20080;-51
2022/07/27 00:02:44;;;;;;;5.28;2.20;;;24.90;32.50;;;;;;5112052;28;20039;-54
2022/07/27 00:05:10;;;;;;;2.83;2.28;;;24.90;30.50;;;;;;5112152;28;20028;-51
2022/07/27 00:07:36;;;;;;;2.85;2.38;;;24.90;29.00;;;;;;5093448;28;20046;-50
2022/07/27 00:10:02;;;;;;;2.55;2.15;;;25.10;27.50;;;;;;5109852;28;20111;-50
2022/07/27 00:12:28;;;;;;;4.43;2.05;;;25.10;23.40;;;;;;5111740;28;20023;-53
2022/07/27 00:14:54;;;;;;;2.45;1.77;;;25.10;17.60;;;;;;5104903;28;20023;-51
2022/07/27 00:17:22;;;;;;;1.80;1.45;;;25.20;19.70;;;;;;5112424;28;20362;-54
2022/07/27 00:19:49;;;;;;;1.80;1.70;;;25.20;17.80;;;;;;5107633;28;20030;-52
2022/07/27 00:22:14;;;;;;;1.60;1.50;;;25.30;10.30;;;;;;5111266;28;20533;-53
2022/07/27 00:24:40;;;;;;;1.80;1.45;;;25.40;14.10;;;;;;5103247;28;20024;-52
2022/07/27 00:27:07;;;;;;;1.92;1.75;;;25.60;12.10;;;;;;5110828;28;20027;-53
2022/07/27 00:29:32;;;;;;;1.85;1.73;;;25.60;10.30;;;;;;5108855;28;20058;-53
2022/07/27 00:31:58;;;;;;;1.80;1.70;;;25.80;9.80;;;;;;5112565;28;20020;-52
2022/07/27 00:34:24;;;;;;;1.50;1.40;;;25.70;8.90;;;;;;5110096;28;20102;-55
2022/07/27 00:36:49;;;;;;;2.20;1.80;;;25.80;7.80;;;;;;5109578;28;20461;-55
2022/07/27 00:39:15;;;;;;;2.22;1.63;;;25.80;7.70;;;;;;5111470;28;20039;-55
2022/07/27 00:41:41;;;;;;;1.77;1.67;;;25.80;7.20;;;;;;5112095;28;20393;-51
2022/07/27 00:44:06;;;;;;;2.08;1.90;;;25.80;7.00;;;;;;5108340;28;20032;-53
2022/07/27 00:49:54;;;;;;;3.15;1.98;;;25.80;1.00;;;;;;5107890;28;20094;-54
2022/07/27 00:52:21;;;;;;;4.32;2.80;;;25.80;6.80;;;;;;5093325;28;20100;-49
2022/07/27 00:54:47;;;;;;;3.63;2.67;;;25.70;6.00;;;;;;5107147;28;20032;-51
2022/07/27 00:57:14;;;;;;;2.90;2.50;;;25.80;6.10;;;;;;5106524;28;20087;-51
2022/07/27 00:59:40;;;;;;;3.20;2.90;;;25.80;3.20;;;;;;5108127;28;20088;-55
2022/07/27 01:02:06;;;;;;;2.92;2.72;;;25.70;3.40;;;;;;5109111;28;20115;-53
2022/07/27 01:04:33;;;;;;;3.42;3.20;;;25.90;1.00;;;;;;5110778;28;20024;-51
2022/07/27 01:06:59;;;;;;;4.03;3.55;;;25.80;2.60;;;;;;5104810;28;20537;-53
2022/07/27 01:12:14;;;;;;;4.32;4.00;;;25.80;3.20;;;;;;5112214;28;20039;-53
2022/07/27 01:14:39;;;;;;;5.25;4.75;;;26.00;1.60;;;;;;5109008;28;20027;-54
2022/07/27 01:17:06;;;;;;;6.65;5.07;;;26.20;3.40;;;;;;5107456;28;20031;-53
2022/07/27 01:19:33;;;;;;;5.47;4.70;;;26.20;3.10;;;;;;5091439;28;20110;-54
2022/07/27 01:21:58;;;;;;;4.63;4.13;;;26.10;3.10;;;;;;5111896;28;20023;-52
2022/07/27 01:24:24;;;;;;;2.90;2.70;;;26.10;3.10;;;;;;5115312;28;20080;-55
2022/07/27 01:26:50;;;;;;;3.42;2.78;;;26.10;1.80;;;;;;5109199;28;20019;-55
2022/07/27 01:29:15;;;;;;;2.92;2.63;;;26.10;1.30;;;;;;5098824;28;20032;-56
2022/07/27 01:31:41;;;;;;;3.63;2.30;;;26.10;1.00;;;;;;5097026;28;20454;-53
2022/07/27 01:34:07;;;;;;;3.15;2.58;;;26.30;1.00;;;;;;5095363;28;20028;-54
2022/07/27 01:36:32;;;;;;;2.72;2.45;;;26.40;1.00;;;;;;5090478;28;20027;-51
2022/07/27 01:38:58;;;;;;;3.75;2.40;;;26.40;1.00;;;;;;5115274;28;20028;-51
2022/07/27 01:41:24;;;;;;;3.10;2.90;;;26.40;1.00;;;;;;5108129;28;20116;-53
2022/07/27 01:43:49;;;;;;;3.63;2.50;;;26.20;1.00;;;;;;5107147;28;20039;-52
2022/07/27 01:46:16;;;;;;;4.20;2.88;;;26.20;1.00;;;;;;5105734;28;20380;-50
2022/07/27 01:48:42;;;;;;;3.08;2.63;;;26.30;1.00;;;;;;5115173;28;20039;-51
2022/07/27 01:51:07;;;;;;;3.38;2.90;;;26.40;1.00;;;;;;5096173;28;20034;-52
2022/07/27 01:53:33;;;;;;;3.17;2.88;;;26.40;1.00;;;;;;5114857;28;20027;-52
2022/07/27 01:55:59;;;;;;;3.15;2.85;;;26.40;1.00;;;;;;5106234;28;20027;-54
2022/07/27 01:58:24;;;;;;;2.70;2.50;;;26.30;1.00;;;;;;5110029;28;20103;-51
2022/07/27 02:00:50;;;;;;;4.50;3.33;;;26.30;1.00;;;;;;5094466;28;20063;-49
2022/07/27 02:03:16;;;;;;;3.70;2.85;;;26.20;1.00;;;;;;5115010;28;20457;-53
2022/07/27 02:05:42;;;;;;;6.25;2.53;;;26.50;1.00;;;;;;5113387;28;20452;-50
2022/07/27 02:08:08;;;;;;;2.55;2.35;;;26.20;1.00;;;;;;5114918;28;20110;-52
2022/07/27 02:10:35;;;;;;;2.60;2.40;;;26.10;1.00;;;;;;5110639;28;20055;-51
2022/07/27 02:13:01;;;;;;;2.10;1.90;;;26.10;1.00;;;;;;5114747;28;20023;-52
2022/07/27 02:15:28;;;;;;;1.80;1.70;;;25.90;1.00;;;;;;5113313;28;20362;-50
2022/07/27 02:17:54;;;;;;;2.05;1.73;;;25.90;1.00;;;;;;5114627;28;20016;-51
2022/07/27 02:20:22;;;;;;;1.95;1.83;;;25.70;1.00;;;;;;5113355;28;20035;-55
2022/07/27 02:22:48;;;;;;;3.55;2.30;;;25.60;1.00;;;;;;5105670;28;20039;-50
2022/07/27 02:25:16;;;;;;;2.00;1.80;;;25.50;1.00;;;;;;5110860;28;20028;-54
2022/07/27 02:27:43;;;;;;;2.50;2.10;;;25.50;1.00;;;;;;5104907;28;20023;-49
2022/07/27 02:30:10;;;;;;;1.75;1.65;;;25.50;1.00;;;;;;5111362;28;20051;-52
2022/07/27 02:32:36;;;;;;;1.85;1.65;;;25.40;1.00;;;;;;5101607;28;20012;-53
2022/07/27 02:35:01;;;;;;;2.67;1.83;;;25.30;1.00;;;;;;5093735;28;20671;-55
2022/07/27 02:37:27;;;;;;;4.20;2.30;;;25.20;1.00;;;;;;5114282;28;20022;-53
2022/07/27 02:39:53;;;;;;;3.50;1.92;;;25.20;1.00;;;;;;5112914;28;20020;-53
2022/07/27 02:42:19;;;;;;;4.05;2.38;;;25.30;1.00;;;;;;5111550;28;20048;-52
2022/07/27 02:44:45;;;;;;;2.47;2.28;;;25.10;1.00;;;;;;5095715;28;20038;-55
2022/07/27 02:47:10;;;;;;;4.95;2.40;;;25.10;1.00;;;;;;5096175;28;20028;-55
2022/07/27 02:49:36;;;;;;;3.08;2.00;;;25.00;1.00;;;;;;5100321;28;20361;-51
2022/07/27 02:52:04;;;;;;;2.33;2.13;;;25.10;1.00;;;;;;5100384;28;20396;-54
2022/07/27 02:54:31;;;;;;;3.58;2.47;;;25.00;1.00;;;;;;5083595;28;20076;-52
2022/07/27 02:56:58;;;;;;;3.15;2.40;;;25.00;1.00;;;;;;5110570;28;20023;-50
2022/07/27 02:59:25;;;;;;;2.42;2.22;;;25.10;1.00;;;;;;5112233;28;20043;-51
2022/07/27 03:01:51;;;;;;;2.47;2.28;;;25.00;1.00;;;;;;5111418;28;20058;-52
2022/07/27 03:04:17;;;;;;;2.33;2.10;;;25.00;1.00;;;;;;5112984;28;20464;-55
2022/07/27 03:06:43;;;;;;;2.47;2.28;;;24.90;1.00;;;;;;5094866;28;20400;-56
2022/07/27 03:09:09;;;;;;;2.85;2.40;;;25.00;1.00;;;;;;5113544;28;20024;-55
2022/07/27 03:11:35;;;;;;;4.53;2.53;;;25.10;1.00;;;;;;5111988;28;20521;-52
2022/07/27 03:14:01;;;;;;;3.30;2.47;;;24.90;1.00;;;;;;5113490;28;20027;-55
2022/07/27 03:16:26;;;;;;;3.63;2.05;;;25.00;1.00;;;;;;5107345;28;20426;-55
2022/07/27 03:18:52;;;;;;;2.72;2.50;;;25.00;1.00;;;;;;5113479;28;20135;-54
2022/07/27 03:21:17;;;;;;;2.40;2.20;;;25.10;1.00;;;;;;5112016;28;20106;-50
2022/07/27 03:23:43;;;;;;;3.20;2.90;;;25.00;1.00;;;;;;5113334;28;20019;-54
2022/07/27 03:26:09;;;;;;;4.15;2.20;;;25.10;1.00;;;;;;5105002;28;20055;-54
2022/07/27 03:28:34;;;;;;;2.45;2.25;;;25.00;1.00;;;;;;5112373;28;20032;-52
2022/07/27 03:31:00;;;;;;;2.38;2.17;;;24.90;1.00;;;;;;5111892;28;20492;-52
2022/07/27 03:33:25;;;;;;;3.05;2.58;;;24.90;1.00;;;;;;5113496;28;20080;-55
2022/07/27 03:35:51;;;;;;;3.20;2.55;;;25.00;1.00;;;;;;5112898;28;20028;-54
2022/07/27 03:38:17;;;;;;;2.88;2.58;;;24.90;1.00;;;;;;5113041;28;20104;-51
2022/07/27 03:40:44;;;;;;;5.22;2.42;;;24.70;1.00;;;;;;5111349;28;20051;-54
2022/07/27 03:43:10;;;;;;;2.35;2.15;;;25.00;1.00;;;;;;5112950;28;20455;-51
2022/07/27 03:45:36;;;;;;;3.60;2.47;;;24.90;1.00;;;;;;5111326;28;20080;-52
2022/07/27 03:48:01;;;;;;;2.72;2.47;;;25.00;1.00;;;;;;5112816;28;20032;-51
2022/07/27 03:50:27;;;;;;;3.00;2.72;;;24.90;1.00;;;;;;5111701;28;20043;-52
2022/07/27 03:52:53;;;;;;;2.55;2.35;;;25.00;1.00;;;;;;5112794;28;20027;-52
2022/07/27 03:55:19;;;;;;;2.95;2.65;;;25.10;1.00;;;;;;5099784;28;20035;-51
2022/07/27 03:57:45;;;;;;;2.95;2.65;;;25.00;1.00;;;;;;5103487;28;20023;-50
2022/07/27 04:00:12;;;;;;;4.47;3.15;;;25.10;1.00;;;;;;5111586;28;20345;-53
2022/07/27 04:02:39;;;;;;;2.40;2.20;;;25.10;1.00;;;;;;5112528;28;20016;-56
2022/07/27 04:05:05;;;;;;;2.53;2.22;;;25.20;1.00;;;;;;5111998;28;20469;-51
2022/07/27 04:07:30;;;;;;;4.32;2.63;;;25.10;1.00;;;;;;5112346;28;20020;-50
2022/07/27 04:09:56;;;;;;;3.10;2.80;;;25.00;1.00;;;;;;5112560;28;20046;-52
2022/07/27 04:12:22;;;;;;;4.03;2.65;;;25.10;1.00;;;;;;5094944;28;20037;-51
2022/07/27 04:14:48;;;;;;;6.53;2.72;;;25.20;1.00;;;;;;5102057;28;20046;-52
2022/07/27 04:17:13;;;;;;;3.17;2.83;;;25.20;1.00;;;;;;5111724;28;20024;-51
2022/07/27 04:19:39;;;;;;;3.83;2.53;;;25.20;1.00;;;;;;5112793;28;20036;-50
2022/07/27 04:22:04;;;;;;;3.40;2.58;;;25.10;1.00;;;;;;5110852;28;20031;-55
2022/07/27 04:24:30;;;;;;;3.60;2.10;;;25.20;1.00;;;;;;5112209;28;20028;-52
2022/07/27 04:26:56;;;;;;;2.67;2.47;;;25.00;1.00;;;;;;5108120;28;20102;-51
2022/07/27 04:29:21;;;;;;;2.78;2.20;;;25.00;1.00;;;;;;5111992;28;20024;-52
2022/07/27 04:31:47;;;;;;;2.50;2.20;;;25.00;1.00;;;;;;5109729;28;20423;-53
2022/07/27 04:34:12;;;;;;;2.50;2.30;;;25.00;1.00;;;;;;5112206;28;20031;-51
2022/07/27 04:36:38;;;;;;;3.65;2.80;;;25.10;1.00;;;;;;5091467;28;20398;-54
2022/07/27 04:39:04;;;;;;;4.22;2.80;;;25.10;1.00;;;;;;5112017;28;20028;-52
2022/07/27 04:41:30;;;;;;;3.38;2.42;;;25.20;1.00;;;;;;5092134;28;20036;-54
2022/07/27 04:43:55;;;;;;;2.28;2.00;;;25.20;1.00;;;;;;5112353;28;20431;-53
2022/07/27 04:46:21;;;;;;;5.15;2.53;;;25.20;1.00;;;;;;5104886;28;20559;-56
2022/07/27 04:48:47;;;;;;;3.50;2.65;;;25.10;1.00;;;;;;5090216;28;20103;-53
2022/07/27 04:51:13;;;;;;;3.40;2.63;;;25.20;1.00;;;;;;5092435;28;20381;-55
2022/07/27 04:53:39;;;;;;;4.07;2.88;;;25.20;1.00;;;;;;5100728;28;20046;-56
2022/07/27 04:56:05;;;;;;;2.45;2.20;;;25.10;1.00;;;;;;5095960;28;20035;-51
2022/07/27 04:58:31;;;;;;;3.35;2.45;;;25.20;1.00;;;;;;5101919;28;20185;-54
2022/07/27 05:00:56;;;;;;;4.13;2.38;;;25.10;1.00;;;;;;5098334;28;20111;-54
2022/07/27 05:03:22;;;;;;;3.58;2.80;;;25.10;1.00;;;;;;5099431;28;20453;-53
2022/07/27 05:05:48;;;;;;;4.05;2.75;;;25.10;1.00;;;;;;5096740;28;20031;-49
2022/07/27 05:08:13;;;;;;;3.53;2.65;;;25.20;1.00;;;;;;5115353;28;20437;-51
2022/07/27 05:10:39;;;;;;;3.25;2.50;;;25.20;1.00;;;;;;5112529;28;20125;-49
2022/07/27 05:13:04;;;;;;;3.78;2.72;;;25.30;1.00;;;;;;5091440;28;20023;-52
2022/07/27 05:15:30;;;;;;;4.60;3.20;;;25.40;1.00;;;;;;5114808;28;20023;-52
2022/07/27 05:17:56;;;;;;;3.92;3.38;;;25.40;1.00;;;;;;5115579;28;20076;-50
2022/07/27 05:20:21;;;;;;;3.55;3.25;;;25.40;1.00;;;;;;5115321;28;20020;-50
2022/07/27 05:22:47;;;;;;;3.80;2.88;;;25.40;1.00;;;;;;5106341;28;20504;-53
2022/07/27 05:25:13;;;;;;;4.53;3.53;;;25.40;1.00;;;;;;5083068;28;20497;-56
2022/07/27 05:27:38;;;;;;;3.47;3.17;;;25.30;1.00;;;;;;5108396;28;20251;-53
2022/07/27 05:30:05;;;;;;;3.92;2.92;;;25.50;1.00;;;;;;5115640;28;20043;-51
2022/07/27 05:32:30;;;;;;;5.38;3.80;;;25.50;1.00;;;;;;5114548;28;20020;-53
2022/07/27 05:34:56;;;;;;;4.07;3.65;;;25.40;1.00;;;;;;5115401;28;20384;-56
2022/07/27 05:37:21;;;;;;;4.97;4.03;;;25.30;1.00;;;;;;5104662;28;20349;-53
2022/07/27 05:39:47;;;;;;;4.35;3.85;;;25.40;1.00;;;;;;5115011;28;20069;-52
2022/07/27 05:42:12;;;;;;;5.15;3.58;;;25.40;1.00;;;;;;5113760;28;20047;-51
2022/07/27 05:44:38;;;;;;;3.35;3.05;;;25.20;1.00;;;;;;5115167;28;20090;-55
2022/07/27 05:47:04;;;;;;;5.88;3.97;;;25.30;1.00;;;;;;5102716;28;20042;-54
2022/07/27 05:49:29;;;;;;;4.43;3.63;;;25.30;1.00;;;;;;5114696;28;20380;-56
2022/07/27 05:51:55;;;;;;;3.50;3.17;;;25.40;1.00;;;;;;5113986;28;20028;-54
2022/07/27 05:54:21;;;;;;;3.75;3.13;;;25.40;1.00;;;;;;5114790;28;20100;-55
2022/07/27 05:56:47;;;;;;;3.95;3.55;;;25.40;1.00;;;;;;5106981;28;20031;-57
2022/07/27 05:59:12;;;;;;;4.85;3.88;;;25.40;1.00;;;;;;5109482;28;20511;-57
2022/07/27 06:01:38;;;;;;;5.25;4.22;;;25.40;1.00;;;;;;5107203;28;20028;-55
2022/07/27 06:04:04;;;;;;;4.78;4.28;;;25.50;1.00;;;;;;5114657;28;20032;-56
2022/07/27 06:09:15;;;;;;;5.15;4.35;;;25.60;1.00;;;;;;5113412;28;20078;-57
2022/07/27 06:11:41;;;;;;;4.25;3.85;;;25.60;1.00;;;;;;5112068;28;20027;-56
2022/07/27 06:14:08;;;;;;;4.03;3.63;;;25.70;1.00;;;;;;5113193;28;20511;-57
2022/07/27 06:16:33;;;;;;;4.18;3.88;;;25.70;1.00;;;;;;5111471;28;20035;-53
2022/07/27 06:18:59;;;;;;;4.28;3.88;;;25.60;1.00;;;;;;5114987;28;20535;-54
2022/07/27 06:21:25;;;;;;;5.57;4.28;;;25.80;1.00;;;;;;5111691;28;20023;-56
2022/07/27 06:23:52;;;;;;;4.70;4.05;;;25.80;1.00;;;;;;5114396;28;20026;-56
2022/07/27 06:26:17;;;;;;;6.78;4.90;;;25.80;1.00;;;;;;5110358;28;20101;-53
2022/07/27 06:28:43;;;;;;;4.90;4.40;;;25.80;1.00;;;;;;5094917;28;20455;-57
2022/07/27 06:31:09;;;;;;;4.70;4.28;;;25.90;1.00;;;;;;5113448;28;20044;-55
2022/07/27 06:33:34;;;;;;;5.90;4.30;;;26.00;1.00;;;;;;5114346;28;20016;-57
2022/07/27 06:36:00;;;;;;;4.85;4.22;;;26.00;1.00;;;;;;5112737;28;20503;-57
2022/07/27 06:38:27;;;;;;;4.60;4.20;;;26.10;1.00;;;;;;5108756;28;20384;-56
2022/07/27 06:40:53;;;;;;;7.38;4.40;;;26.10;1.00;;;;;;5113464;28;20566;-57
2022/07/27 06:43:24;;;;;;;7.03;4.35;;;26.20;1.00;;;;;;5110361;28;20023;-51
2022/07/27 06:45:52;;;;;;;4.57;4.15;;;26.20;1.00;;;;;;5100164;28;20023;-54
2022/07/27 06:48:20;;;;;;;6.93;4.35;;;26.20;1.00;;;;;;5106532;28;20089;-56
2022/07/27 06:50:46;;;;;;;4.85;3.55;;;26.20;1.00;;;;;;5106094;28;20069;-57
2022/07/27 06:53:12;;;;;;;4.30;3.90;;;26.30;1.00;;;;;;5112759;28;20019;-56
2022/07/27 06:55:37;;;;;;;5.00;3.60;;;26.40;1.00;;;;;;5113346;28;20031;-63
2022/07/27 06:58:03;;;;;;;4.60;3.30;;;26.50;1.00;;;;;;5112412;28;20384;-65
2022/07/27 07:00:29;;;;;;;5.97;3.72;;;26.40;1.00;;;;;;5114038;28;20019;-68
2022/07/27 07:03:01;;;;;;;4.30;3.65;;;26.40;1.00;;;;;;5099793;28;20032;-63
2022/07/27 07:05:27;;;;;;;11.45;3.50;;;26.50;1.00;;;;;;5112960;28;20037;-69
2022/07/27 07:07:54;;;;;;;4.68;4.05;;;26.50;1.00;;;;;;5111499;28;20022;-63
2022/07/27 07:10:20;;;;;;;5.07;3.70;;;26.50;1.00;;;;;;5113495;28;20561;-69
2022/07/27 07:12:45;;;;;;;4.82;4.15;;;26.50;1.00;;;;;;5112716;28;20050;-69
2022/07/27 07:15:12;;;;;;;6.00;4.35;;;26.70;1.00;;;;;;5113640;28;20027;-60
2022/07/27 07:17:38;;;;;;;4.22;3.83;;;26.80;1.00;;;;;;5104760;28;20020;-59
2022/07/27 07:20:05;;;;;;;4.18;3.13;;;26.70;1.00;;;;;;5110953;28;20103;-52
2022/07/27 07:22:33;;;;;;;2.58;2.38;;;26.80;1.00;;;;;;5112166;28;20102;-64
2022/07/27 07:25:01;;;;;;;3.42;3.05;;;26.70;1.00;;;;;;5095124;28;20022;-63
2022/07/27 07:27:27;;;;;;;3.15;2.85;;;26.90;1.00;;;;;;5110027;28;20111;-51
2022/07/27 07:29:53;;;;;;;3.38;2.90;;;26.90;1.00;;;;;;5112610;28;20043;-65
2022/07/27 07:32:21;;;;;;;3.17;2.92;;;26.80;1.00;;;;;;5093331;28;20380;-61
2022/07/27 07:34:48;;;;;;;4.53;2.67;;;26.80;1.00;;;;;;5108883;28;20015;-53
2022/07/27 07:37:15;;;;;;;3.38;2.80;;;26.70;1.00;;;;;;5111614;28;20022;-49
2022/07/27 07:39:41;;;;;;;4.80;3.33;;;26.80;1.00;;;;;;5112476;28;20537;-64
2022/07/27 07:42:07;;;;;;;4.65;3.35;;;26.90;1.00;;;;;;5111782;28;20048;-60
2022/07/27 07:44:32;;;;;;;3.03;2.40;;;27.10;1.00;;;;;;5112329;28;20480;-54
2022/07/27 07:46:59;;;;;;;3.80;2.53;;;26.80;1.00;;;;;;5105935;28;20059;-61
2022/07/27 07:49:25;;;;;;;5.68;2.47;;;27.00;1.00;;;;;;5110337;28;20108;-63
2022/07/27 07:51:51;;;;;;;3.95;3.05;;;27.10;1.00;;;;;;5111739;28;20492;-60
2022/07/27 07:54:17;;;;;;;5.18;3.30;;;27.10;1.00;;;;;;5112036;28;20121;-49
2022/07/27 07:56:42;;;;;;;2.80;2.60;;;27.10;1.00;;;;;;5108497;28;20043;-54
2022/07/27 07:59:08;;;;;;;2.60;2.40;;;27.10;1.00;;;;;;5110099;28;20110;-56
2022/07/27 08:01:34;;;;;;;4.22;2.83;;;27.00;1.00;;;;;;5111718;28;20439;-54
2022/07/27 08:03:59;;;;;;;4.57;3.10;;;27.00;1.00;;;;;;5112163;28;20031;-58
2022/07/27 08:06:25;;;;;;;2.67;2.47;;;27.00;1.00;;;;;;5111797;28;20046;-53
2022/07/27 08:08:50;;;;;;;3.63;2.72;;;27.00;1.00;;;;;;5102246;28;20032;-56
2022/07/27 08:11:16;;;;;;;3.10;2.85;;;27.30;1.00;;;;;;5107523;28;20392;-55
2022/07/27 08:13:42;;;;;;;4.30;2.72;;;27.30;1.00;;;;;;5089607;28;20028;-54
2022/07/27 08:16:07;;;;;;;3.30;3.10;;;27.20;1.00;;;;;;5094110;28;20024;-58
2022/07/27 08:18:33;;;;;;;5.25;3.00;;;27.20;1.00;;;;;;5109176;28;20024;-57
2022/07/27 08:20:59;;;;;;;7.43;2.97;;;27.20;1.00;;;;;;5111450;28;20058;-52
2022/07/27 08:23:28;;;;;;;3.13;2.92;;;27.30;1.00;;;;;;5105750;28;20019;-53
2022/07/27 08:25:53;;;;;;;4.10;3.40;;;27.30;1.00;;;;;;5112220;28;20500;-52
2022/07/27 08:28:19;;;;;;;5.00;3.47;;;27.30;1.00;;;;;;5111588;28;20036;-54
2022/07/27 08:30:45;;;;;;;3.67;3.08;;;27.10;1.00;;;;;;5112186;28;20027;-59
2022/07/27 08:33:11;;;;;;;6.82;3.30;;;27.20;1.00;;;;;;5091735;28;20481;-56
2022/07/27 08:35:37;;;;;;;4.90;3.03;;;27.30;1.00;;;;;;5112448;28;20043;-49
2022/07/27 08:38:05;;;;;;;2.83;2.63;;;27.30;1.00;;;;;;5110233;28;20043;-53
2022/07/27 08:40:31;;;;;;;4.00;3.03;;;27.40;1.00;;;;;;5112203;28;20119;-63
2022/07/27 08:42:59;;;;;;;3.45;2.95;;;27.40;1.00;;;;;;5109608;28;20032;-59
2022/07/27 08:45:25;;;;;;;3.55;3.25;;;27.50;1.00;;;;;;5109651;28;20080;-58
2022/07/27 08:47:51;;;;;;;3.20;2.97;;;27.40;1.00;;;;;;5101015;28;20032;-55
2022/07/27 08:50:22;;;;;;;4.22;3.47;;;27.50;1.00;;;;;;5112339;28;20087;-59
2022/07/27 08:52:57;;;;;;;3.35;3.05;;;27.40;1.00;;;;;;5110711;28;20107;-53
2022/07/27 08:55:23;;;;;;;4.38;3.20;;;27.40;1.00;;;;;;5112157;28;20035;-47
2022/07/27 08:57:50;;;;;;;4.13;3.65;;;27.40;1.00;;;;;;5110833;28;20028;-54
2022/07/27 09:00:17;;;;;;;5.53;3.28;;;27.40;1.00;;;;;;5112376;28;20024;-56
2022/07/27 09:02:44;;;;;;;4.20;3.80;;;27.50;1.00;;;;;;5089448;28;20022;-49
2022/07/27 09:05:10;;;;;;;3.90;3.60;;;27.50;1.00;;;;;;5112428;28;20119;-47
2022/07/27 09:07:36;;;;;;;4.13;3.50;;;27.60;1.00;;;;;;5106584;28;20560;-49
2022/07/27 09:10:03;;;;;;;5.10;3.85;;;27.70;1.00;;;;;;5110441;28;20117;-47
2022/07/27 09:12:31;;;;;;;4.60;3.83;;;27.70;1.00;;;;;;5111117;28;20449;-58
2022/07/27 09:15:12;;;;;;;4.43;3.70;;;27.60;1.00;;;;;;5109567;28;20099;-48
2022/07/27 09:17:40;;;;;;;4.55;4.15;;;27.70;1.00;;;;;;5109576;28;20024;-49
2022/07/27 09:20:17;;;;;;;4.72;4.07;;;27.70;1.00;;;;;;5111729;28;20023;-45
2022/07/27 09:22:53;;;;;;;5.97;4.53;;;27.70;1.00;;;;;;5107808;28;20023;-45
2022/07/27 09:25:23;;;;;;;4.82;3.90;;;27.80;1.00;;;;;;5105852;28;20055;-49
2022/07/27 09:27:54;;;;;;;3.83;3.53;;;27.80;1.00;;;;;;5107655;28;20058;-48
2022/07/27 09:30:20;;;;;;;4.50;3.50;;;27.80;1.00;;;;;;5104740;28;20031;-47
2022/07/27 09:32:53;;;;;;;3.92;3.55;;;27.90;1.00;;;;;;5101475;28;20091;-52
2022/07/27 09:35:26;;;;;;;3.75;3.38;;;28.00;1.00;;;;;;5105753;28;20028;-51
2022/07/27 09:37:51;;;;;;;5.70;4.38;;;28.00;1.00;;;;;;5100721;28;20046;-46
2022/07/27 09:40:21;;;;;;;4.38;3.80;;;28.00;1.00;;;;;;5107652;28;20477;-47
2022/07/27 09:42:47;;;;;;;5.47;4.38;;;28.10;1.00;;;;;;5107175;28;20063;-49
2022/07/27 09:45:32;;;;;;;7.55;4.60;;;28.10;1.00;;;;;;5110872;28;20027;-47
2022/07/27 09:48:18;;;;;;;4.88;4.30;;;28.00;1.00;;;;;;5113855;28;20119;-50
2022/07/27 09:50:58;;;;;;;4.35;3.95;;;28.10;1.00;;;;;;5107370;28;20035;-48
2022/07/27 09:53:27;;;;;;;11.13;7.63;;;28.30;1.00;;;;;;5108244;28;20040;-46
2022/07/27 09:56:14;;;;;;;6.22;5.65;;;28.40;1.00;;;;;;5106640;28;20038;-47
2022/07/27 09:58:43;;;;;;;6.78;6.18;;;28.40;1.00;;;;;;5109725;28;20142;-49
2022/07/27 10:01:14;;;;;;;10.75;8.10;;;28.40;1.00;;;;;;5114219;28;20023;-48
2022/07/27 10:03:41;;;;;;;4.90;4.40;;;28.50;1.00;;;;;;5107799;28;20035;-46
2022/07/27 10:06:09;;;;;;;4.30;3.67;;;28.70;1.00;;;;;;5114151;28;20122;-53
2022/07/27 10:08:37;;;;;;;3.97;3.65;;;28.70;1.00;;;;;;5084461;28;20081;-48
2022/07/27 10:11:03;;;;;;;6.40;3.85;;;28.80;1.00;;;;;;5113682;28;20027;-46
2022/07/27 10:13:28;;;;;;;5.55;5.05;;;28.70;1.00;;;;;;5106293;28;20108;-46
2022/07/27 10:15:54;;;;;;;4.25;3.75;;;28.80;1.00;;;;;;5111667;28;20039;-44
2022/07/27 10:18:49;;;;;;;4.38;3.90;;;28.80;1.00;;;;;;5090668;28;20035;-48
2022/07/27 10:21:16;;;;;;;5.28;4.35;;;29.00;1.00;;;;;;5079532;28;20050;-61
2022/07/27 10:23:56;;;;;;;4.78;4.38;;;28.80;1.00;;;;;;5109978;28;20470;-61
2022/07/27 10:26:25;;;;;;;4.15;3.85;;;28.70;1.00;;;;;;5111252;28;20423;-57
2022/07/27 10:29:14;;;;;;;4.45;4.05;;;28.80;1.00;;;;;;5112052;28;20477;-59
2022/07/27 10:31:42;;;;;;;9.13;5.65;;;28.70;1.00;;;;;;5103208;28;20032;-48
2022/07/27 10:34:09;;;;;;;4.07;3.67;;;28.80;1.00;;;;;;5109677;28;20024;-59
2022/07/27 10:36:35;;;;;;;4.00;3.60;;;28.80;1.00;;;;;;5105613;28;20028;-60
2022/07/27 10:39:04;;;;;;;5.20;4.10;;;28.80;1.00;;;;;;5112099;28;20039;-64
2022/07/27 10:41:38;;;;;;;5.90;4.18;;;28.90;1.00;;;;;;5113431;28;20083;-57
2022/07/27 10:44:27;;;;;;;5.47;4.35;;;28.90;1.00;;;;;;5109743;28;20456;-67
2022/07/27 10:46:54;;;;;;;4.50;4.15;;;29.10;1.00;;;;;;5104303;28;20095;-67
2022/07/27 10:49:40;;;;;;;6.28;4.50;;;28.90;1.00;;;;;;5107871;28;20144;-64
2022/07/27 10:52:26;;;;;;;6.28;5.38;;;29.10;1.00;;;;;;5111550;28;20059;-59
2022/07/27 10:54:52;;;;;;;5.38;4.68;;;29.20;1.00;;;;;;5098871;28;20024;-61
2022/07/27 10:57:24;;;;;;;3.92;3.63;;;29.20;1.00;;;;;;5107271;28;20031;-61
2022/07/27 10:59:50;;;;;;;4.78;4.28;;;29.20;1.00;;;;;;5103369;28;20027;-65
2022/07/27 11:02:35;;;;;;;5.82;4.00;;;29.30;1.00;;;;;;5106816;28;20096;-51
2022/07/27 11:05:03;;;;;;;5.28;4.88;;;29.50;1.00;;;;;;5111928;28;20024;-61
2022/07/27 11:07:28;;;;;;;4.75;4.43;;;29.70;1.00;;;;;;5108311;27;20126;-46
2022/07/27 11:09:54;;;;;;;4.38;3.97;;;29.90;1.00;;;;;;5112443;28;20046;-49
2022/07/27 11:12:20;;;;;;;4.38;3.97;;;29.80;1.00;;;;;;5111881;28;20122;-45
2022/07/27 11:14:54;;;;;;;5.18;4.00;;;30.00;1.00;;;;;;5111552;28;20457;-58
2022/07/27 11:17:26;;;;;;;4.10;3.75;;;30.00;1.00;;;;;;5109039;28;20020;-58
2022/07/27 11:19:55;;;;;;;5.78;4.93;;;30.30;1.00;;;;;;5109397;28;20035;-51
2022/07/27 11:22:55;;;;;;;4.75;4.25;;;30.40;1.00;;;;;;5111455;28;20103;-53
2022/07/27 11:25:20;;;;;;;5.60;4.30;;;30.70;1.00;;;;;;5048670;28;20055;-55
2022/07/27 11:27:50;;;;;;;4.85;4.40;;;30.70;1.00;;;;;;5106672;28;20027;-57
2022/07/27 11:30:27;;;;;;;5.40;4.53;;;30.80;1.00;;;;;;5093720;28;20492;-58
2022/07/27 11:32:54;;;;;;;4.20;3.90;;;31.10;1.00;;;;;;5112629;28;20111;-53
2022/07/27 11:35:20;;;;;;;4.82;3.78;;;31.10;1.00;;;;;;5109430;28;20084;-57
2022/07/27 11:38:03;;;;;;;5.63;4.93;;;30.90;1.00;;;;;;5112172;28;20106;-58
2022/07/27 11:40:45;;;;;;;4.22;3.92;;;31.10;1.00;;;;;;5099312;28;20070;-58
2022/07/27 11:43:10;;;;;;;5.40;5.00;;;31.40;1.00;;;;;;5111929;28;20071;-59
2022/07/27 11:45:38;;;;;;;4.88;4.40;;;31.70;1.00;;;;;;5111891;28;20481;-59
2022/07/27 11:48:11;;;;;;;4.07;3.67;;;31.90;1.00;;;;;;5110624;28;20030;-59
2022/07/27 11:50:56;;;;;;;4.20;3.80;;;31.90;1.00;;;;;;5111295;28;20027;-59
2022/07/27 11:53:21;;;;;;;3.60;3.30;;;31.90;1.00;;;;;;5108946;28;20035;-49
2022/07/27 11:55:48;;;;;;;4.55;4.22;;;32.00;1.00;;;;;;5112487;28;20388;-55
2022/07/27 11:58:17;;;;;;;5.47;4.15;;;31.70;1.00;;;;;;5108650;28;20102;-58
2022/07/27 12:00:43;;;;;;;3.95;3.65;;;31.60;1.00;;;;;;5111972;28;20019;-56
2022/07/27 12:03:24;;;;;;;4.00;3.70;;;31.80;1.00;;;;;;5110152;28;20079;-55
2022/07/27 12:05:54;;;;;;;4.30;3.90;;;31.80;1.00;;;;;;5111937;28;20024;-54
2022/07/27 12:08:20;;;;;;;5.65;5.15;;;31.90;1.00;;;;;;5109547;28;20035;-52
2022/07/27 12:10:57;;;;;;;4.63;4.20;;;31.80;1.00;;;;;;5112236;28;20457;-50
2022/07/27 12:13:31;;;;;;;4.22;3.83;;;31.60;1.00;;;;;;5101444;28;20024;-58
2022/07/27 12:15:57;;;;;;;3.60;3.30;;;31.40;1.00;;;;;;5110645;28;20385;-54
2022/07/27 12:18:23;;;;;;;4.88;3.42;;;31.60;1.00;;;;;;5107883;28;20023;-58
2022/07/27 12:20:50;;;;;;;3.88;3.58;;;31.80;1.00;;;;;;5106429;28;20039;-51
2022/07/27 12:23:16;;;;;;;4.35;3.70;;;31.60;1.00;;;;;;5102673;28;20477;-53
2022/07/27 12:25:43;;;;;;;3.47;3.17;;;31.80;1.00;;;;;;5092661;28;20027;-47
2022/07/27 12:28:12;;;;;;;4.18;3.40;;;31.60;1.00;;;;;;5111160;28;20031;-46
2022/07/27 12:30:37;;;;;;;4.13;3.35;;;31.50;1.00;;;;;;5111749;28;20038;-48
2022/07/27 12:33:23;;;;;;;3.67;3.47;;;31.40;1.00;;;;;;5107001;28;20119;-51
2022/07/27 12:35:49;;;;;;;4.82;3.60;;;31.40;1.00;;;;;;5111492;28;20059;-49
2022/07/27 12:38:15;;;;;;;4.72;3.30;;;31.40;1.00;;;;;;5108033;28;20054;-58
2022/07/27 12:40:49;;;;;;;4.15;3.85;;;31.40;1.00;;;;;;5109994;28;20051;-53
2022/07/27 12:43:23;;;;;;;3.90;3.42;;;31.50;1.00;;;;;;5110960;28;20022;-50
2022/07/27 12:45:52;;;;;;;4.05;3.50;;;31.50;1.00;;;;;;5112052;28;20035;-55
2022/07/27 12:48:26;;;;;;;3.95;3.60;;;31.50;1.00;;;;;;5110734;28;20434;-56
2022/07/27 12:51:01;;;;;;;;;;;31.50;1.00;;;;;;5112214;28;20103;-60
2022/07/27 12:53:28;;;;;;;3.80;3.50;;;31.50;1.00;;;;;;5094607;28;19921;-57
2022/07/27 12:55:57;;;;;;;3.78;3.47;;;31.50;1.00;;;;;;5089134;28;20047;-53
2022/07/27 12:58:23;;;;;;;8.32;3.88;;;31.60;1.00;;;;;;5104135;28;20020;-59
2022/07/27 13:00:49;;;;;;;3.67;3.38;;;31.60;1.00;;;;;;5105488;28;20034;-56
2022/07/27 13:03:15;;;;;;;3.38;3.17;;;31.60;1.00;;;;;;5091999;28;20020;-49
2022/07/27 13:05:41;;;;;;;3.70;3.40;;;31.60;1.00;;;;;;5110337;28;20053;-53
2022/07/27 13:08:08;;;;;;;3.30;3.10;;;31.60;1.00;;;;;;5106383;28;20095;-47